Main page
METAR-TAF:

METAR-TAF

Airports :

Nausori International Airport

Suva, Fiji

latitude: 18-03S, longitude: 178-34E, elevation: 5 m

Current weather observation

The report was made 31 minutes ago, at 18:00 UTC
Wind 3 kt from the East/Southeast
Temperature 21°C
Humidity 73%
Pressure 1014 hPa
Visibility 10 km or more
Scattered clouds at a height of 2400 ft

METAR: NFNA 211800Z 12003KT 9999 SCT024 21/16 Q1014

Time: 06:31 (18:31 UTC)

Forecast

The report was made 1 hour and 27 minutes ago, at 17:04 UTC
Forecast valid from 21 at 18 UTC to 22 at 18 UTC
Wind 7 kt from the Southeast
Visibility 10 km or more
Scattered clouds at a height of 2400 ft

TAF: NFNA 211704Z 2118/2218 13007KT 9999 SCT024

Weather observations and forecasts of more than 4000 airports (METAR and TAF reports).

The available stations are represented by yellow and red dots on the map.

Hover mouse over dot to see the name of the station.

Then click to see weather observations and forecasts.

To change the map : click on the green buttons with a black cross to zoom in, on the green button with a dash to zoom out, or on the green arrows for adjacent maps.


METAR-TAF: